sensor_id;sensor_type;location;lat;lon;timestamp;P1;P2;P0
59546;PMS5003;45368;55.002;-1.592;2023-02-12T00:02:08;4;4;
59546;PMS5003;45368;55.002;-1.592;2023-02-12T00:04:36;6;5;
59546;PMS5003;45368;55.002;-1.592;2023-02-12T00:07:04;6;4;
59546;PMS5003;45368;55.002;-1.592;2023-02-12T00:09:31;8;8;
59546;PMS5003;45368;55.002;-1.592;2023-02-12T00:11:58;10;8;
59546;PMS5003;45368;55.002;-1.592;2023-02-12T00:14:25;13;10;
59546;PMS5003;45368;55.002;-1.592;2023-02-12T00:16:53;11;7;
59546;PMS5003;45368;55.002;-1.592;2023-02-12T00:19:20;11;9;
59546;PMS5003;45368;55.002;-1.592;2023-02-12T00:21:48;11;10;
59546;PMS5003;45368;55.002;-1.592;2023-02-12T00:24:15;14;12;
59546;PMS5003;45368;55.002;-1.592;2023-02-12T00:26:41;9;8;
59546;PMS5003;45368;55.002;-1.592;2023-02-12T00:29:08;9;8;
59546;PMS5003;45368;55.002;-1.592;2023-02-12T00:31:36;10;9;
59546;PMS5003;45368;55.002;-1.592;2023-02-12T00:34:04;7;7;
59546;PMS5003;45368;55.002;-1.592;2023-02-12T00:36:32;11;8;
59546;PMS5003;45368;55.002;-1.592;2023-02-12T00:38:59;9;8;
59546;PMS5003;45368;55.002;-1.592;2023-02-12T00:41:27;11;11;
59546;PMS5003;45368;55.002;-1.592;2023-02-12T00:43:54;8;8;
59546;PMS5003;45368;55.002;-1.592;2023-02-12T00:46:22;12;11;
59546;PMS5003;45368;55.002;-1.592;2023-02-12T00:48:49;11;10;
59546;PMS5003;45368;55.002;-1.592;2023-02-12T00:51:16;15;11;
59546;PMS5003;45368;55.002;-1.592;2023-02-12T00:53:43;16;13;
59546;PMS5003;45368;55.002;-1.592;2023-02-12T00:56:10;13;10;
59546;PMS5003;45368;55.002;-1.592;2023-02-12T00:58:37;11;10;
59546;PMS5003;45368;55.002;-1.592;2023-02-12T01:01:05;11;9;
59546;PMS5003;45368;55.002;-1.592;2023-02-12T01:03:32;6;6;
59546;PMS5003;45368;55.002;-1.592;2023-02-12T01:05:59;6;6;
59546;PMS5003;45368;55.002;-1.592;2023-02-12T01:08:26;7;6;
59546;PMS5003;45368;55.002;-1.592;2023-02-12T01:10:54;11;8;
59546;PMS5003;45368;55.002;-1.592;2023-02-12T01:13:22;8;7;
59546;PMS5003;45368;55.002;-1.592;2023-02-12T01:16:00;7;7;
59546;PMS5003;45368;55.002;-1.592;2023-02-12T01:18:29;5;5;
59546;PMS5003;45368;55.002;-1.592;2023-02-12T01:20:55;6;5;
59546;PMS5003;45368;55.002;-1.592;2023-02-12T01:23:22;5;5;
59546;PMS5003;45368;55.002;-1.592;2023-02-12T01:25:50;5;5;
59546;PMS5003;45368;55.002;-1.592;2023-02-12T01:28:18;4;4;
59546;PMS5003;45368;55.002;-1.592;2023-02-12T01:30:46;4;4;
59546;PMS5003;45368;55.002;-1.592;2023-02-12T01:33:12;4;4;
59546;PMS5003;45368;55.002;-1.592;2023-02-12T01:35:39;5;4;
59546;PMS5003;45368;55.002;-1.592;2023-02-12T01:38:07;3;3;
59546;PMS5003;45368;55.002;-1.592;2023-02-12T01:40:34;5;4;
59546;PMS5003;45368;55.002;-1.592;2023-02-12T01:43:01;5;5;
59546;PMS5003;45368;55.002;-1.592;2023-02-12T01:46:06;5;4;
59546;PMS5003;45368;55.002;-1.592;2023-02-12T01:48:37;6;5;
59546;PMS5003;45368;55.002;-1.592;2023-02-12T01:51:06;5;5;
59546;PMS5003;45368;55.002;-1.592;2023-02-12T01:53:39;5;4;
59546;PMS5003;45368;55.002;-1.592;2023-02-12T01:56:11;5;3;
59546;PMS5003;45368;55.002;-1.592;2023-02-12T01:58:40;3;3;
59546;PMS5003;45368;55.002;-1.592;2023-02-12T02:01:10;5;4;
59546;PMS5003;45368;55.002;-1.592;2023-02-12T02:03:41;5;4;
59546;PMS5003;45368;55.002;-1.592;2023-02-12T02:06:13;5;4;
59546;PMS5003;45368;55.002;-1.592;2023-02-12T02:08:42;4;3;
59546;PMS5003;45368;55.002;-1.592;2023-02-12T02:11:09;5;4;
59546;PMS5003;45368;55.002;-1.592;2023-02-12T02:13:36;3;2;
59546;PMS5003;45368;55.002;-1.592;2023-02-12T02:16:05;3;3;
59546;PMS5003;45368;55.002;-1.592;2023-02-12T02:18:42;3;3;
59546;PMS5003;45368;55.002;-1.592;2023-02-12T02:21:50;4;4;
59546;PMS5003;45368;55.002;-1.592;2023-02-12T02:24:39;4;4;
59546;PMS5003;45368;55.002;-1.592;2023-02-12T02:27:41;4;3;
59546;PMS5003;45368;55.002;-1.592;2023-02-12T02:30:21;4;3;
59546;PMS5003;45368;55.002;-1.592;2023-02-12T02:33:00;2;2;
59546;PMS5003;45368;55.002;-1.592;2023-02-12T02:35:40;4;4;
59546;PMS5003;45368;55.002;-1.592;2023-02-12T02:38:16;5;5;
59546;PMS5003;45368;55.002;-1.592;2023-02-12T02:40:51;4;4;
59546;PMS5003;45368;55.002;-1.592;2023-02-12T02:43:22;5;5;
59546;PMS5003;45368;55.002;-1.592;2023-02-12T02:45:54;7;5;
59546;PMS5003;45368;55.002;-1.592;2023-02-12T02:48:28;3;3;
59546;PMS5003;45368;55.002;-1.592;2023-02-12T02:51:03;5;5;
59546;PMS5003;45368;55.002;-1.592;2023-02-12T02:53:36;3;1;
59546;PMS5003;45368;55.002;-1.592;2023-02-12T02:56:11;5;3;
59546;PMS5003;45368;55.002;-1.592;2023-02-12T02:58:42;5;3;
59546;PMS5003;45368;55.002;-1.592;2023-02-12T03:01:15;4;3;
59546;PMS5003;45368;55.002;-1.592;2023-02-12T03:03:48;4;4;
59546;PMS5003;45368;55.002;-1.592;2023-02-12T03:06:19;6;4;
59546;PMS5003;45368;55.002;-1.592;2023-02-12T03:08:54;2;2;
59546;PMS5003;45368;55.002;-1.592;2023-02-12T03:11:27;3;2;
59546;PMS5003;45368;55.002;-1.592;2023-02-12T03:13:58;2;2;
59546;PMS5003;45368;55.002;-1.592;2023-02-12T03:16:31;2;2;
59546;PMS5003;45368;55.002;-1.592;2023-02-12T03:19:07;2;1;
59546;PMS5003;45368;55.002;-1.592;2023-02-12T03:21:39;3;3;
59546;PMS5003;45368;55.002;-1.592;2023-02-12T03:24:11;3;3;
59546;PMS5003;45368;55.002;-1.592;2023-02-12T03:26:44;3;2;
59546;PMS5003;45368;55.002;-1.592;2023-02-12T03:29:15;4;3;
59546;PMS5003;45368;55.002;-1.592;2023-02-12T03:31:47;4;3;
59546;PMS5003;45368;55.002;-1.592;2023-02-12T03:34:24;3;3;
59546;PMS5003;45368;55.002;-1.592;2023-02-12T03:37:01;2;1;
59546;PMS5003;45368;55.002;-1.592;2023-02-12T03:39:34;2;1;
59546;PMS5003;45368;55.002;-1.592;2023-02-12T03:42:12;3;2;
59546;PMS5003;45368;55.002;-1.592;2023-02-12T03:44:45;2;2;
59546;PMS5003;45368;55.002;-1.592;2023-02-12T03:47:20;2;2;
59546;PMS5003;45368;55.002;-1.592;2023-02-12T03:49:56;4;4;
59546;PMS5003;45368;55.002;-1.592;2023-02-12T03:52:31;2;1;
59546;PMS5003;45368;55.002;-1.592;2023-02-12T03:54:59;2;2;
59546;PMS5003;45368;55.002;-1.592;2023-02-12T03:57:28;4;3;
59546;PMS5003;45368;55.002;-1.592;2023-02-12T04:00:00;3;2;
59546;PMS5003;45368;55.002;-1.592;2023-02-12T04:02:31;3;2;
59546;PMS5003;45368;55.002;-1.592;2023-02-12T04:05:02;3;3;
59546;PMS5003;45368;55.002;-1.592;2023-02-12T04:07:31;4;2;
59546;PMS5003;45368;55.002;-1.592;2023-02-12T04:10:00;1;1;
59546;PMS5003;45368;55.002;-1.592;2023-02-12T04:12:33;4;3;
59546;PMS5003;45368;55.002;-1.592;2023-02-12T04:15:10;3;2;
59546;PMS5003;45368;55.002;-1.592;2023-02-12T04:17:49;3;3;
59546;PMS5003;45368;55.002;-1.592;2023-02-12T04:20:25;1;1;
59546;PMS5003;45368;55.002;-1.592;2023-02-12T04:23:05;3;3;
59546;PMS5003;45368;55.002;-1.592;2023-02-12T04:25:43;1;1;
59546;PMS5003;45368;55.002;-1.592;2023-02-12T04:28:21;3;2;
59546;PMS5003;45368;55.002;-1.592;2023-02-12T04:30:58;2;2;
59546;PMS5003;45368;55.002;-1.592;2023-02-12T04:33:32;3;1;
59546;PMS5003;45368;55.002;-1.592;2023-02-12T04:36:06;1;1;
59546;PMS5003;45368;55.002;-1.592;2023-02-12T04:38:39;2;2;
59546;PMS5003;45368;55.002;-1.592;2023-02-12T04:41:12;1;1;
59546;PMS5003;45368;55.002;-1.592;2023-02-12T04:43:39;1;1;
59546;PMS5003;45368;55.002;-1.592;2023-02-12T04:46:07;3;1;
59546;PMS5003;45368;55.002;-1.592;2023-02-12T04:48:34;2;1;
59546;PMS5003;45368;55.002;-1.592;2023-02-12T04:51:12;2;1;
59546;PMS5003;45368;55.002;-1.592;2023-02-12T04:53:39;1;1;
59546;PMS5003;45368;55.002;-1.592;2023-02-12T04:56:07;3;2;
59546;PMS5003;45368;55.002;-1.592;2023-02-12T04:58:36;2;2;
59546;PMS5003;45368;55.002;-1.592;2023-02-12T05:01:03;3;2;
59546;PMS5003;45368;55.002;-1.592;2023-02-12T05:03:30;3;1;
59546;PMS5003;45368;55.002;-1.592;2023-02-12T05:06:00;2;2;
59546;PMS5003;45368;55.002;-1.592;2023-02-12T05:08:28;0;0;
59546;PMS5003;45368;55.002;-1.592;2023-02-12T05:10:55;0;0;
59546;PMS5003;45368;55.002;-1.592;2023-02-12T05:13:23;3;2;
59546;PMS5003;45368;55.002;-1.592;2023-02-12T05:15:49;1;1;
59546;PMS5003;45368;55.002;-1.592;2023-02-12T05:18:16;1;1;
59546;PMS5003;45368;55.002;-1.592;2023-02-12T05:20:43;3;2;
59546;PMS5003;45368;55.002;-1.592;2023-02-12T05:23:10;0;0;
59546;PMS5003;45368;55.002;-1.592;2023-02-12T05:25:37;0;0;
59546;PMS5003;45368;55.002;-1.592;2023-02-12T05:28:04;2;2;
59546;PMS5003;45368;55.002;-1.592;2023-02-12T05:30:31;2;1;
59546;PMS5003;45368;55.002;-1.592;2023-02-12T05:32:58;1;1;
59546;PMS5003;45368;55.002;-1.592;2023-02-12T05:35:25;1;1;
59546;PMS5003;45368;55.002;-1.592;2023-02-12T05:37:52;1;1;
59546;PMS5003;45368;55.002;-1.592;2023-02-12T05:40:19;4;4;
59546;PMS5003;45368;55.002;-1.592;2023-02-12T05:42:47;4;3;
59546;PMS5003;45368;55.002;-1.592;2023-02-12T05:45:14;2;2;
59546;PMS5003;45368;55.002;-1.592;2023-02-12T05:47:41;2;2;
59546;PMS5003;45368;55.002;-1.592;2023-02-12T05:50:09;2;2;
59546;PMS5003;45368;55.002;-1.592;2023-02-12T05:52:37;1;0;
59546;PMS5003;45368;55.002;-1.592;2023-02-12T05:55:04;3;2;
59546;PMS5003;45368;55.002;-1.592;2023-02-12T05:57:32;4;2;
59546;PMS5003;45368;55.002;-1.592;2023-02-12T06:00:00;3;2;
59546;PMS5003;45368;55.002;-1.592;2023-02-12T06:02:27;2;2;
59546;PMS5003;45368;55.002;-1.592;2023-02-12T06:04:55;3;3;
59546;PMS5003;45368;55.002;-1.592;2023-02-12T06:07:22;2;2;
59546;PMS5003;45368;55.002;-1.592;2023-02-12T06:09:49;2;2;
59546;PMS5003;45368;55.002;-1.592;2023-02-12T06:12:16;3;3;
59546;PMS5003;45368;55.002;-1.592;2023-02-12T06:14:44;1;1;
59546;PMS5003;45368;55.002;-1.592;2023-02-12T06:17:12;2;0;
59546;PMS5003;45368;55.002;-1.592;2023-02-12T06:19:39;3;2;
59546;PMS5003;45368;55.002;-1.592;2023-02-12T06:22:06;2;2;
59546;PMS5003;45368;55.002;-1.592;2023-02-12T06:24:33;0;0;
59546;PMS5003;45368;55.002;-1.592;2023-02-12T06:27:00;2;1;
59546;PMS5003;45368;55.002;-1.592;2023-02-12T06:29:28;4;3;
59546;PMS5003;45368;55.002;-1.592;2023-02-12T06:31:54;2;2;
59546;PMS5003;45368;55.002;-1.592;2023-02-12T06:34:21;3;2;
59546;PMS5003;45368;55.002;-1.592;2023-02-12T06:36:48;3;3;
59546;PMS5003;45368;55.002;-1.592;2023-02-12T06:39:15;2;2;
59546;PMS5003;45368;55.002;-1.592;2023-02-12T06:41:43;2;2;
59546;PMS5003;45368;55.002;-1.592;2023-02-12T06:44:11;3;1;
59546;PMS5003;45368;55.002;-1.592;2023-02-12T06:46:38;2;1;
59546;PMS5003;45368;55.002;-1.592;2023-02-12T06:49:06;1;1;
59546;PMS5003;45368;55.002;-1.592;2023-02-12T06:51:34;2;2;
59546;PMS5003;45368;55.002;-1.592;2023-02-12T06:54:02;3;2;
59546;PMS5003;45368;55.002;-1.592;2023-02-12T06:56:29;2;1;
59546;PMS5003;45368;55.002;-1.592;2023-02-12T06:58:57;1;1;
59546;PMS5003;45368;55.002;-1.592;2023-02-12T07:01:26;2;2;
59546;PMS5003;45368;55.002;-1.592;2023-02-12T07:03:56;2;2;
59546;PMS5003;45368;55.002;-1.592;2023-02-12T07:06:25;3;3;
59546;PMS5003;45368;55.002;-1.592;2023-02-12T07:08:54;2;2;
59546;PMS5003;45368;55.002;-1.592;2023-02-12T07:11:22;3;1;
59546;PMS5003;45368;55.002;-1.592;2023-02-12T07:13:50;2;1;
59546;PMS5003;45368;55.002;-1.592;2023-02-12T07:16:18;3;2;
59546;PMS5003;45368;55.002;-1.592;2023-02-12T07:18:46;1;0;
59546;PMS5003;45368;55.002;-1.592;2023-02-12T07:21:14;4;2;
59546;PMS5003;45368;55.002;-1.592;2023-02-12T07:23:45;4;3;
59546;PMS5003;45368;55.002;-1.592;2023-02-12T07:26:13;2;2;
59546;PMS5003;45368;55.002;-1.592;2023-02-12T07:28:41;0;0;
59546;PMS5003;45368;55.002;-1.592;2023-02-12T07:31:09;3;3;
59546;PMS5003;45368;55.002;-1.592;2023-02-12T07:33:38;4;3;
59546;PMS5003;45368;55.002;-1.592;2023-02-12T07:36:06;3;3;
59546;PMS5003;45368;55.002;-1.592;2023-02-12T07:38:36;3;2;
59546;PMS5003;45368;55.002;-1.592;2023-02-12T07:41:05;2;2;
59546;PMS5003;45368;55.002;-1.592;2023-02-12T07:43:34;1;1;
59546;PMS5003;45368;55.002;-1.592;2023-02-12T07:46:10;1;1;
59546;PMS5003;45368;55.002;-1.592;2023-02-12T07:48:39;2;1;
59546;PMS5003;45368;55.002;-1.592;2023-02-12T07:51:06;3;2;
59546;PMS5003;45368;55.002;-1.592;2023-02-12T07:53:35;1;1;
59546;PMS5003;45368;55.002;-1.592;2023-02-12T07:56:05;3;2;
59546;PMS5003;45368;55.002;-1.592;2023-02-12T07:58:38;3;3;
59546;PMS5003;45368;55.002;-1.592;2023-02-12T08:01:10;2;0;
59546;PMS5003;45368;55.002;-1.592;2023-02-12T08:03:39;2;1;
59546;PMS5003;45368;55.002;-1.592;2023-02-12T08:06:07;2;1;
59546;PMS5003;45368;55.002;-1.592;2023-02-12T08:08:36;2;2;
59546;PMS5003;45368;55.002;-1.592;2023-02-12T08:11:04;1;1;
59546;PMS5003;45368;55.002;-1.592;2023-02-12T08:13:32;2;2;
59546;PMS5003;45368;55.002;-1.592;2023-02-12T08:16:00;2;2;
59546;PMS5003;45368;55.002;-1.592;2023-02-12T08:18:29;4;2;
59546;PMS5003;45368;55.002;-1.592;2023-02-12T08:21:00;3;2;
59546;PMS5003;45368;55.002;-1.592;2023-02-12T08:23:28;2;1;
59546;PMS5003;45368;55.002;-1.592;2023-02-12T08:26:04;2;1;
59546;PMS5003;45368;55.002;-1.592;2023-02-12T08:28:34;2;2;
59546;PMS5003;45368;55.002;-1.592;2023-02-12T08:31:02;2;1;
59546;PMS5003;45368;55.002;-1.592;2023-02-12T08:33:32;0;0;
59546;PMS5003;45368;55.002;-1.592;2023-02-12T08:36:01;2;1;
59546;PMS5003;45368;55.002;-1.592;2023-02-12T08:38:29;2;2;
59546;PMS5003;45368;55.002;-1.592;2023-02-12T08:40:59;2;2;
59546;PMS5003;45368;55.002;-1.592;2023-02-12T08:43:27;3;2;
59546;PMS5003;45368;55.002;-1.592;2023-02-12T08:45:56;1;1;
59546;PMS5003;45368;55.002;-1.592;2023-02-12T08:48:27;6;5;
59546;PMS5003;45368;55.002;-1.592;2023-02-12T08:50:55;1;1;
59546;PMS5003;45368;55.002;-1.592;2023-02-12T08:53:21;1;1;
59546;PMS5003;45368;55.002;-1.592;2023-02-12T08:55:49;0;0;
59546;PMS5003;45368;55.002;-1.592;2023-02-12T08:58:16;2;2;
59546;PMS5003;45368;55.002;-1.592;2023-02-12T09:00:43;3;2;
59546;PMS5003;45368;55.002;-1.592;2023-02-12T09:03:10;1;1;
59546;PMS5003;45368;55.002;-1.592;2023-02-12T09:05:37;3;3;
59546;PMS5003;45368;55.002;-1.592;2023-02-12T09:08:04;3;2;
59546;PMS5003;45368;55.002;-1.592;2023-02-12T09:10:32;5;2;
59546;PMS5003;45368;55.002;-1.592;2023-02-12T09:13:00;4;4;
59546;PMS5003;45368;55.002;-1.592;2023-02-12T09:15:28;5;4;
59546;PMS5003;45368;55.002;-1.592;2023-02-12T09:17:55;3;3;
59546;PMS5003;45368;55.002;-1.592;2023-02-12T09:20:22;4;4;
59546;PMS5003;45368;55.002;-1.592;2023-02-12T09:22:50;2;2;
59546;PMS5003;45368;55.002;-1.592;2023-02-12T09:25:17;3;2;
59546;PMS5003;45368;55.002;-1.592;2023-02-12T09:27:45;2;2;
59546;PMS5003;45368;55.002;-1.592;2023-02-12T09:30:12;2;2;
59546;PMS5003;45368;55.002;-1.592;2023-02-12T09:32:39;2;2;
59546;PMS5003;45368;55.002;-1.592;2023-02-12T09:35:06;2;2;
59546;PMS5003;45368;55.002;-1.592;2023-02-12T09:37:34;3;2;
59546;PMS5003;45368;55.002;-1.592;2023-02-12T09:40:02;2;2;
59546;PMS5003;45368;55.002;-1.592;2023-02-12T09:42:34;6;4;
59546;PMS5003;45368;55.002;-1.592;2023-02-12T09:45:16;3;2;
59546;PMS5003;45368;55.002;-1.592;2023-02-12T09:47:48;3;2;
59546;PMS5003;45368;55.002;-1.592;2023-02-12T09:50:27;4;4;
59546;PMS5003;45368;55.002;-1.592;2023-02-12T09:52:58;4;4;
59546;PMS5003;45368;55.002;-1.592;2023-02-12T09:55:28;4;4;
59546;PMS5003;45368;55.002;-1.592;2023-02-12T09:57:57;3;2;
59546;PMS5003;45368;55.002;-1.592;2023-02-12T10:00:27;5;4;
59546;PMS5003;45368;55.002;-1.592;2023-02-12T10:02:56;4;3;
59546;PMS5003;45368;55.002;-1.592;2023-02-12T10:05:28;4;1;
59546;PMS5003;45368;55.002;-1.592;2023-02-12T10:08:05;2;2;
59546;PMS5003;45368;55.002;-1.592;2023-02-12T10:10:45;3;3;
59546;PMS5003;45368;55.002;-1.592;2023-02-12T10:13:19;0;0;
59546;PMS5003;45368;55.002;-1.592;2023-02-12T10:15:58;3;2;
59546;PMS5003;45368;55.002;-1.592;2023-02-12T10:18:36;2;1;
59546;PMS5003;45368;55.002;-1.592;2023-02-12T10:21:23;2;2;
59546;PMS5003;45368;55.002;-1.592;2023-02-12T10:24:11;4;3;
59546;PMS5003;45368;55.002;-1.592;2023-02-12T10:26:51;2;2;
59546;PMS5003;45368;55.002;-1.592;2023-02-12T10:29:24;3;2;
59546;PMS5003;45368;55.002;-1.592;2023-02-12T10:31:54;4;4;
59546;PMS5003;45368;55.002;-1.592;2023-02-12T10:34:29;6;6;
59546;PMS5003;45368;55.002;-1.592;2023-02-12T10:37:00;5;4;
59546;PMS5003;45368;55.002;-1.592;2023-02-12T10:39:30;4;4;
59546;PMS5003;45368;55.002;-1.592;2023-02-12T10:42:01;6;6;
59546;PMS5003;45368;55.002;-1.592;2023-02-12T10:44:35;3;3;
59546;PMS5003;45368;55.002;-1.592;2023-02-12T10:47:03;5;5;
59546;PMS5003;45368;55.002;-1.592;2023-02-12T10:49:30;5;4;
59546;PMS5003;45368;55.002;-1.592;2023-02-12T10:52:03;4;4;
59546;PMS5003;45368;55.002;-1.592;2023-02-12T10:54:39;5;5;
59546;PMS5003;45368;55.002;-1.592;2023-02-12T10:57:10;2;2;
59546;PMS5003;45368;55.002;-1.592;2023-02-12T10:59:41;5;5;
59546;PMS5003;45368;55.002;-1.592;2023-02-12T11:02:26;5;4;
59546;PMS5003;45368;55.002;-1.592;2023-02-12T11:04:56;7;7;
59546;PMS5003;45368;55.002;-1.592;2023-02-12T11:07:24;7;5;
59546;PMS5003;45368;55.002;-1.592;2023-02-12T11:09:53;5;4;
59546;PMS5003;45368;55.002;-1.592;2023-02-12T11:12:28;4;4;
59546;PMS5003;45368;55.002;-1.592;2023-02-12T11:15:05;7;6;
59546;PMS5003;45368;55.002;-1.592;2023-02-12T11:17:41;4;4;
59546;PMS5003;45368;55.002;-1.592;2023-02-12T11:20:19;6;4;
59546;PMS5003;45368;55.002;-1.592;2023-02-12T11:22:50;7;7;
59546;PMS5003;45368;55.002;-1.592;2023-02-12T11:25:19;5;5;
59546;PMS5003;45368;55.002;-1.592;2023-02-12T11:27:58;5;4;
59546;PMS5003;45368;55.002;-1.592;2023-02-12T11:30:27;3;3;
59546;PMS5003;45368;55.002;-1.592;2023-02-12T11:32:55;5;5;
59546;PMS5003;45368;55.002;-1.592;2023-02-12T11:35:50;6;6;
59546;PMS5003;45368;55.002;-1.592;2023-02-12T11:38:22;8;7;
59546;PMS5003;45368;55.002;-1.592;2023-02-12T11:40:55;6;4;
59546;PMS5003;45368;55.002;-1.592;2023-02-12T11:43:25;6;6;
59546;PMS5003;45368;55.002;-1.592;2023-02-12T11:45:53;6;6;
59546;PMS5003;45368;55.002;-1.592;2023-02-12T11:48:23;5;5;
59546;PMS5003;45368;55.002;-1.592;2023-02-12T11:50:53;4;4;
59546;PMS5003;45368;55.002;-1.592;2023-02-12T11:53:25;4;4;
59546;PMS5003;45368;55.002;-1.592;2023-02-12T11:55:56;6;5;
59546;PMS5003;45368;55.002;-1.592;2023-02-12T11:58:27;6;6;
59546;PMS5003;45368;55.002;-1.592;2023-02-12T12:00:57;5;5;
59546;PMS5003;45368;55.002;-1.592;2023-02-12T12:03:32;5;4;
59546;PMS5003;45368;55.002;-1.592;2023-02-12T12:06:09;6;6;
59546;PMS5003;45368;55.002;-1.592;2023-02-12T12:08:47;9;8;
59546;PMS5003;45368;55.002;-1.592;2023-02-12T12:11:21;9;8;
59546;PMS5003;45368;55.002;-1.592;2023-02-12T12:13:56;16;15;
59546;PMS5003;45368;55.002;-1.592;2023-02-12T12:16:36;8;7;
59546;PMS5003;45368;55.002;-1.592;2023-02-12T12:19:09;10;10;
59546;PMS5003;45368;55.002;-1.592;2023-02-12T12:21:44;10;9;
59546;PMS5003;45368;55.002;-1.592;2023-02-12T12:24:19;9;9;
59546;PMS5003;45368;55.002;-1.592;2023-02-12T12:26:54;13;11;
59546;PMS5003;45368;55.002;-1.592;2023-02-12T12:29:28;27;25;
59546;PMS5003;45368;55.002;-1.592;2023-02-12T12:32:13;21;18;
59546;PMS5003;45368;55.002;-1.592;2023-02-12T12:34:42;8;8;
59546;PMS5003;45368;55.002;-1.592;2023-02-12T12:37:28;13;13;
59546;PMS5003;45368;55.002;-1.592;2023-02-12T12:40:05;13;12;
59546;PMS5003;45368;55.002;-1.592;2023-02-12T12:42:54;10;10;
59546;PMS5003;45368;55.002;-1.592;2023-02-12T12:45:37;16;14;
59546;PMS5003;45368;55.002;-1.592;2023-02-12T12:48:27;13;12;
59546;PMS5003;45368;55.002;-1.592;2023-02-12T12:51:10;16;14;
59546;PMS5003;45368;55.002;-1.592;2023-02-12T12:53:54;12;9;
59546;PMS5003;45368;55.002;-1.592;2023-02-12T12:56:36;10;10;
59546;PMS5003;45368;55.002;-1.592;2023-02-12T12:59:17;6;5;
59546;PMS5003;45368;55.002;-1.592;2023-02-12T13:02:00;5;5;
59546;PMS5003;45368;55.002;-1.592;2023-02-12T13:04:48;6;5;
59546;PMS5003;45368;55.002;-1.592;2023-02-12T13:07:30;6;3;
59546;PMS5003;45368;55.002;-1.592;2023-02-12T13:10:13;4;4;
59546;PMS5003;45368;55.002;-1.592;2023-02-12T13:12:51;3;3;
59546;PMS5003;45368;55.002;-1.592;2023-02-12T13:15:31;2;2;
59546;PMS5003;45368;55.002;-1.592;2023-02-12T13:18:05;2;2;
59546;PMS5003;45368;55.002;-1.592;2023-02-12T13:20:45;4;4;
59546;PMS5003;45368;55.002;-1.592;2023-02-12T13:23:19;4;4;
59546;PMS5003;45368;55.002;-1.592;2023-02-12T13:26:02;4;2;
59546;PMS5003;45368;55.002;-1.592;2023-02-12T13:28:36;3;2;
59546;PMS5003;45368;55.002;-1.592;2023-02-12T13:31:06;1;1;
59546;PMS5003;45368;55.002;-1.592;2023-02-12T13:33:39;4;2;
59546;PMS5003;45368;55.002;-1.592;2023-02-12T13:36:09;3;3;
59546;PMS5003;45368;55.002;-1.592;2023-02-12T13:38:41;4;2;
59546;PMS5003;45368;55.002;-1.592;2023-02-12T13:41:11;3;2;
59546;PMS5003;45368;55.002;-1.592;2023-02-12T13:43:44;2;2;
59546;PMS5003;45368;55.002;-1.592;2023-02-12T13:46:20;1;1;
59546;PMS5003;45368;55.002;-1.592;2023-02-12T13:48:56;2;2;
59546;PMS5003;45368;55.002;-1.592;2023-02-12T13:51:37;1;1;
59546;PMS5003;45368;55.002;-1.592;2023-02-12T13:54:11;1;1;
59546;PMS5003;45368;55.002;-1.592;2023-02-12T13:56:48;3;3;
59546;PMS5003;45368;55.002;-1.592;2023-02-12T13:59:49;0;0;
59546;PMS5003;45368;55.002;-1.592;2023-02-12T14:02:26;1;1;
59546;PMS5003;45368;55.002;-1.592;2023-02-12T14:05:13;2;2;
59546;PMS5003;45368;55.002;-1.592;2023-02-12T14:07:47;2;2;
59546;PMS5003;45368;55.002;-1.592;2023-02-12T14:10:19;0;0;
59546;PMS5003;45368;55.002;-1.592;2023-02-12T14:12:49;3;2;
59546;PMS5003;45368;55.002;-1.592;2023-02-12T14:15:28;3;2;
59546;PMS5003;45368;55.002;-1.592;2023-02-12T14:18:19;2;2;
59546;PMS5003;45368;55.002;-1.592;2023-02-12T14:21:33;1;1;
59546;PMS5003;45368;55.002;-1.592;2023-02-12T14:26:16;2;2;
59546;PMS5003;45368;55.002;-1.592;2023-02-12T14:28:50;3;3;
59546;PMS5003;45368;55.002;-1.592;2023-02-12T14:31:28;4;3;
59546;PMS5003;45368;55.002;-1.592;2023-02-12T14:34:37;4;3;
59546;PMS5003;45368;55.002;-1.592;2023-02-12T14:37:11;4;3;
59546;PMS5003;45368;55.002;-1.592;2023-02-12T14:39:43;5;5;
59546;PMS5003;45368;55.002;-1.592;2023-02-12T14:42:51;2;2;
59546;PMS5003;45368;55.002;-1.592;2023-02-12T14:45:29;3;3;
59546;PMS5003;45368;55.002;-1.592;2023-02-12T14:48:00;4;4;
59546;PMS5003;45368;55.002;-1.592;2023-02-12T14:50:37;12;10;
59546;PMS5003;45368;55.002;-1.592;2023-02-12T14:53:15;12;11;
59546;PMS5003;45368;55.002;-1.592;2023-02-12T14:55:50;11;11;
59546;PMS5003;45368;55.002;-1.592;2023-02-12T14:58:19;13;11;
59546;PMS5003;45368;55.002;-1.592;2023-02-12T15:00:49;14;13;
59546;PMS5003;45368;55.002;-1.592;2023-02-12T15:03:21;15;14;
59546;PMS5003;45368;55.002;-1.592;2023-02-12T15:05:56;10;10;
59546;PMS5003;45368;55.002;-1.592;2023-02-12T15:08:30;12;11;
59546;PMS5003;45368;55.002;-1.592;2023-02-12T15:11:04;15;15;
59546;PMS5003;45368;55.002;-1.592;2023-02-12T15:13:44;13;13;
59546;PMS5003;45368;55.002;-1.592;2023-02-12T15:16:16;14;13;
59546;PMS5003;45368;55.002;-1.592;2023-02-12T15:18:53;9;9;
59546;PMS5003;45368;55.002;-1.592;2023-02-12T15:21:26;17;12;
59546;PMS5003;45368;55.002;-1.592;2023-02-12T15:23:58;10;10;
59546;PMS5003;45368;55.002;-1.592;2023-02-12T15:26:29;11;9;
59546;PMS5003;45368;55.002;-1.592;2023-02-12T15:28:59;12;12;
59546;PMS5003;45368;55.002;-1.592;2023-02-12T15:31:28;14;13;
59546;PMS5003;45368;55.002;-1.592;2023-02-12T15:33:58;15;14;
59546;PMS5003;45368;55.002;-1.592;2023-02-12T15:36:28;16;16;
59546;PMS5003;45368;55.002;-1.592;2023-02-12T15:38:59;18;16;
59546;PMS5003;45368;55.002;-1.592;2023-02-12T15:41:29;20;18;
59546;PMS5003;45368;55.002;-1.592;2023-02-12T15:44:04;22;20;
59546;PMS5003;45368;55.002;-1.592;2023-02-12T15:47:08;24;22;
59546;PMS5003;45368;55.002;-1.592;2023-02-12T15:49:39;19;18;
59546;PMS5003;45368;55.002;-1.592;2023-02-12T15:52:07;21;18;
59546;PMS5003;45368;55.002;-1.592;2023-02-12T15:54:42;20;18;
59546;PMS5003;45368;55.002;-1.592;2023-02-12T15:57:10;24;21;
59546;PMS5003;45368;55.002;-1.592;2023-02-12T15:59:39;24;23;
59546;PMS5003;45368;55.002;-1.592;2023-02-12T16:02:15;13;12;
59546;PMS5003;45368;55.002;-1.592;2023-02-12T16:04:45;18;14;
59546;PMS5003;45368;55.002;-1.592;2023-02-12T16:07:13;9;9;
59546;PMS5003;45368;55.002;-1.592;2023-02-12T16:09:41;12;12;
59546;PMS5003;45368;55.002;-1.592;2023-02-12T16:12:11;18;16;
59546;PMS5003;45368;55.002;-1.592;2023-02-12T16:14:41;16;16;
59546;PMS5003;45368;55.002;-1.592;2023-02-12T16:17:20;20;18;
59546;PMS5003;45368;55.002;-1.592;2023-02-12T16:19:52;19;19;
59546;PMS5003;45368;55.002;-1.592;2023-02-12T16:22:22;23;19;
59546;PMS5003;45368;55.002;-1.592;2023-02-12T16:24:53;27;23;
59546;PMS5003;45368;55.002;-1.592;2023-02-12T16:27:23;31;28;
59546;PMS5003;45368;55.002;-1.592;2023-02-12T16:29:53;28;27;
59546;PMS5003;45368;55.002;-1.592;2023-02-12T16:32:27;39;38;
59546;PMS5003;45368;55.002;-1.592;2023-02-12T16:35:05;33;32;
59546;PMS5003;45368;55.002;-1.592;2023-02-12T16:37:49;43;41;
59546;PMS5003;45368;55.002;-1.592;2023-02-12T16:40:20;39;38;
59546;PMS5003;45368;55.002;-1.592;2023-02-12T16:42:55;35;33;
59546;PMS5003;45368;55.002;-1.592;2023-02-12T16:45:40;39;39;
59546;PMS5003;45368;55.002;-1.592;2023-02-12T16:48:13;45;38;
59546;PMS5003;45368;55.002;-1.592;2023-02-12T16:50:44;39;37;
59546;PMS5003;45368;55.002;-1.592;2023-02-12T16:53:47;38;36;
59546;PMS5003;45368;55.002;-1.592;2023-02-12T16:56:15;40;38;
59546;PMS5003;45368;55.002;-1.592;2023-02-12T16:58:44;41;38;
59546;PMS5003;45368;55.002;-1.592;2023-02-12T17:01:15;28;26;
59546;PMS5003;45368;55.002;-1.592;2023-02-12T17:03:45;43;36;
59546;PMS5003;45368;55.002;-1.592;2023-02-12T17:06:12;27;27;